Wetterdaten: Donnerstag, 17.10.2013
Datum Zeit Temperatur Luftfeuchte Luftdruck Regen Wind Richtung Richtung Taupunkt Windchill Windben
17.10.2013 00:00 3,0 C 92 % 1017,1 hPa 0,0 l/m 0,6 km/h (0 Bft) O-NO 67 1,8 C 2,8 C 0,0 km/h (0 Bft)
17.10.2013 00:05 2,9 C 93 % 1017,1 hPa 0,0 l/m 0,6 km/h (0 Bft) O 90 1,9 C 2,7 C 0,0 km/h (0 Bft)
17.10.2013 00:10 3,0 C 92 % 1016,9 hPa 0,0 l/m 0,0 km/h (0 Bft) O 90 1,8 C 2,7 C 0,0 km/h (0 Bft)
17.10.2013 00:15 3,0 C 92 % 1016,9 hPa 0,0 l/m 0,0 km/h (0 Bft) O-NO 67 1,8 C 2,8 C 0,0 km/h (0 Bft)
17.10.2013 00:20 2,9 C 93 % 1016,9 hPa 0,0 l/m 0,0 km/h (0 Bft) O 90 1,9 C 2,8 C 0,0 km/h (0 Bft)
17.10.2013 00:25 2,8 C 93 % 1016,9 hPa 0,0 l/m 0,0 km/h (0 Bft) NO 45 1,8 C 2,8 C 0,0 km/h (0 Bft)
17.10.2013 00:30 2,8 C 93 % 1016,9 hPa 0,0 l/m 0,0 km/h (0 Bft) N-NW 337 1,8 C 2,7 C 0,0 km/h (0 Bft)
17.10.2013 00:35 2,7 C 93 % 1016,9 hPa 0,0 l/m 0,2 km/h (0 Bft) N 360 1,7 C 2,7 C 0,0 km/h (0 Bft)
17.10.2013 00:40 2,7 C 93 % 1016,9 hPa 0,0 l/m 0,8 km/h (0 Bft) NO 45 1,7 C 2,9 C 4,8 km/h (1 Bft)
17.10.2013 00:45 2,7 C 94 % 1016,9 hPa 0,0 l/m 0,6 km/h (0 Bft) O-NO 67 1,8 C 2,9 C 0,0 km/h (0 Bft)
17.10.2013 00:50 2,7 C 94 % 1016,8 hPa 0,0 l/m 0,0 km/h (0 Bft) W-SW 247 1,8 C 2,9 C 0,0 km/h (0 Bft)
17.10.2013 00:55 3,0 C 93 % 1016,8 hPa 0,0 l/m 0,0 km/h (0 Bft) N-NO 22 2,0 C 2,9 C 0,0 km/h (0 Bft)
17.10.2013 01:00 3,0 C 93 % 1016,8 hPa 0,0 l/m 0,0 km/h (0 Bft) N-NO 22 2,0 C 3,0 C 0,0 km/h (0 Bft)
17.10.2013 01:05 3,2 C 93 % 1016,8 hPa 0,0 l/m 0,0 km/h (0 Bft) N-NO 22 2,2 C 3,1 C 0,0 km/h (0 Bft)
17.10.2013 01:10 3,2 C 93 % 1016,6 hPa 0,0 l/m 0,0 km/h (0 Bft) W-NW 292 2,2 C 3,3 C 1,9 km/h (1 Bft)
17.10.2013 01:15 3,1 C 93 % 1016,6 hPa 0,0 l/m 0,2 km/h (0 Bft) W-SW 247 2,1 C 3,3 C 0,0 km/h (0 Bft)
17.10.2013 01:20 3,4 C 93 % 1016,6 hPa 0,0 l/m 0,2 km/h (0 Bft) W-SW 247 2,4 C 3,4 C 0,0 km/h (0 Bft)
17.10.2013 01:25 3,5 C 93 % 1016,6 hPa 0,0 l/m 0,0 km/h (0 Bft) W-SW 247 2,5 C 3,5 C 0,0 km/h (0 Bft)
17.10.2013 01:30 3,7 C 93 % 1016,4 hPa 0,0 l/m 0,0 km/h (0 Bft) W 270 2,7 C 3,7 C 0,0 km/h (0 Bft)
17.10.2013 01:35 3,7 C 93 % 1016,4 hPa 0,0 l/m 0,0 km/h (0 Bft) W-NW 292 2,7 C 3,8 C 0,0 km/h (0 Bft)
17.10.2013 01:40 3,9 C 94 % 1016,4 hPa 0,0 l/m 0,2 km/h (0 Bft) NO 45 3,0 C 3,9 C 1,8 km/h (1 Bft)
17.10.2013 01:45 4,1 C 93 % 1016,4 hPa 0,0 l/m 0,5 km/h (0 Bft) NO 45 3,1 C 4,0 C 0,0 km/h (0 Bft)
17.10.2013 01:50 4,2 C 93 % 1016,6 hPa 0,0 l/m 0,5 km/h (0 Bft) NO 45 3,2 C 4,3 C 0,0 km/h (0 Bft)
17.10.2013 01:55 4,3 C 93 % 1016,6 hPa 0,0 l/m 0,2 km/h (0 Bft) SO 135 3,3 C 4,3 C 0,0 km/h (0 Bft)
17.10.2013 02:00 4,4 C 93 % 1016,6 hPa 0,0 l/m 0,0 km/h (0 Bft) SO 135 3,4 C 4,4 C 0,0 km/h (0 Bft)
17.10.2013 02:05 4,4 C 93 % 1016,6 hPa 0,0 l/m 0,0 km/h (0 Bft) SO 135 3,4 C 4,4 C 0,0 km/h (0 Bft)
17.10.2013 02:10 4,5 C 93 % 1016,4 hPa 0,0 l/m 0,0 km/h (0 Bft) SO 135 3,5 C 4,5 C 0,0 km/h (0 Bft)
17.10.2013 02:15 4,5 C 93 % 1016,4 hPa 0,0 l/m 0,0 km/h (0 Bft) N-NW 337 3,5 C 4,6 C 0,0 km/h (0 Bft)
17.10.2013 02:20 4,7 C 94 % 1016,4 hPa 0,0 l/m 1,0 km/h (0 Bft) O-NO 67 3,8 C 4,7 C 2,4 km/h (1 Bft)
17.10.2013 02:25 4,8 C 94 % 1016,4 hPa 0,0 l/m 1,0 km/h (0 Bft) W-SW 247 3,9 C 4,8 C 0,0 km/h (0 Bft)
17.10.2013 02:30 4,9 C 94 % 1016,5 hPa 0,0 l/m 1,1 km/h (1 Bft) N-NO 22 4,0 C 4,9 C 1,8 km/h (1 Bft)
17.10.2013 02:35 4,9 C 94 % 1016,5 hPa 0,0 l/m 0,8 km/h (0 Bft) SO 135 4,0 C 4,9 C 0,0 km/h (0 Bft)
17.10.2013 02:40 4,9 C 94 % 1016,5 hPa 0,0 l/m 0,2 km/h (0 Bft) O-SO 112 4,0 C 4,9 C 0,0 km/h (0 Bft)
17.10.2013 02:45 5,0 C 93 % 1016,5 hPa 0,0 l/m 0,3 km/h (0 Bft) N-NO 22 4,0 C 5,0 C 0,0 km/h (0 Bft)
17.10.2013 02:50 5,0 C 93 % 1016,3 hPa 0,0 l/m 0,3 km/h (0 Bft) SO 135 4,0 C 5,0 C 0,0 km/h (0 Bft)
17.10.2013 02:55 5,0 C 93 % 1016,3 hPa 0,0 l/m 0,5 km/h (0 Bft) O 90 4,0 C 5,0 C 2,4 km/h (1 Bft)
17.10.2013 03:00 5,1 C 93 % 1016,3 hPa 0,0 l/m 0,6 km/h (0 Bft) N 360 4,1 C 5,1 C 2,6 km/h (1 Bft)
17.10.2013 03:05 5,1 C 93 % 1016,3 hPa 0,0 l/m 0,5 km/h (0 Bft) NO 45 4,1 C 5,1 C 0,0 km/h (0 Bft)
17.10.2013 03:10 5,2 C 93 % 1016,2 hPa 0,0 l/m 1,3 km/h (1 Bft) O 90 4,2 C 5,2 C 3,9 km/h (1 Bft)
17.10.2013 03:15 5,3 C 93 % 1016,2 hPa 0,0 l/m 2,3 km/h (1 Bft) N-NO 22 4,3 C 5,2 C 6,8 km/h (2 Bft)
17.10.2013 03:20 5,4 C 92 % 1016,2 hPa 0,0 l/m 2,9 km/h (1 Bft) NO 45 4,2 C 5,2 C 4,7 km/h (1 Bft)
17.10.2013 03:25 5,4 C 92 % 1016,2 hPa 0,0 l/m 2,1 km/h (1 Bft) W 270 4,2 C 5,2 C 0,0 km/h (0 Bft)
17.10.2013 03:30 5,5 C 91 % 1016,3 hPa 0,0 l/m 1,1 km/h (1 Bft) S 180 4,2 C 5,3 C 0,0 km/h (0 Bft)
17.10.2013 03:35 5,5 C 91 % 1016,3 hPa 0,0 l/m 0,8 km/h (0 Bft) O-NO 67 4,2 C 5,4 C 2,4 km/h (1 Bft)
17.10.2013 03:40 5,6 C 91 % 1016,3 hPa 0,0 l/m 0,8 km/h (0 Bft) S-SW 202 4,2 C 5,5 C 3,5 km/h (1 Bft)
17.10.2013 03:45 5,6 C 91 % 1016,3 hPa 0,0 l/m 0,6 km/h (0 Bft) N-NO 22 4,2 C 5,6 C 0,0 km/h (0 Bft)
17.10.2013 03:50 5,6 C 91 % 1016,1 hPa 0,0 l/m 0,3 km/h (0 Bft) W-NW 292 4,2 C 5,7 C 0,0 km/h (0 Bft)
17.10.2013 03:55 5,7 C 91 % 1016,1 hPa 0,0 l/m 0,3 km/h (0 Bft) O 90 4,3 C 5,7 C 0,0 km/h (0 Bft)
17.10.2013 04:00 5,7 C 91 % 1016,1 hPa 0,0 l/m 0,5 km/h (0 Bft) O 90 4,3 C 5,7 C 0,0 km/h (0 Bft)
17.10.2013 04:05 5,7 C 91 % 1016,1 hPa 0,0 l/m 0,2 km/h (0 Bft) SO 135 4,3 C 5,8 C 1,9 km/h (1 Bft)
17.10.2013 04:08 5,8 C 91 % 1015,8 hPa 0,0 l/m 1,0 km/h (0 Bft) SO 135 4,4 C 5,8 C 0,0 km/h (0 Bft)
17.10.2013 04:10 5,8 C 91 % 1015,8 hPa 0,0 l/m 1,0 km/h (0 Bft) SO 135 4,4 C 5,8 C 0,0 km/h (0 Bft)
17.10.2013 04:15 6,0 C 90 % 1015,8 hPa 0,0 l/m 1,4 km/h (1 Bft) N-NO 22 4,5 C 6,0 C 2,9 km/h (1 Bft)
17.10.2013 04:20 6,0 C 90 % 1015,8 hPa 0,0 l/m 1,3 km/h (1 Bft) NO 45 4,5 C 6,1 C 2,3 km/h (1 Bft)
17.10.2013 04:25 6,1 C 90 % 1015,8 hPa 0,0 l/m 1,3 km/h (1 Bft) NO 45 4,6 C 6,1 C 1,9 km/h (1 Bft)
17.10.2013 04:30 6,4 C 90 % 1015,9 hPa 0,0 l/m 1,1 km/h (1 Bft) W 270 4,9 C 6,4 C 2,4 km/h (1 Bft)
17.10.2013 04:35 6,4 C 89 % 1015,9 hPa 0,0 l/m 1,4 km/h (1 Bft) NO 45 4,7 C 6,6 C 4,7 km/h (1 Bft)
17.10.2013 04:40 6,4 C 89 % 1015,9 hPa 0,0 l/m 1,6 km/h (1 Bft) N 360 4,7 C 6,5 C 0,0 km/h (0 Bft)
17.10.2013 04:45 6,3 C 89 % 1015,9 hPa 0,0 l/m 1,3 km/h (1 Bft) O 90 4,6 C 6,4 C 2,1 km/h (1 Bft)
17.10.2013 04:50 6,4 C 89 % 1016,2 hPa 0,0 l/m 0,6 km/h (0 Bft) O-NO 67 4,7 C 6,4 C 4,0 km/h (1 Bft)
17.10.2013 04:55 6,5 C 89 % 1016,2 hPa 0,0 l/m 1,9 km/h (1 Bft) NO 45 4,8 C 6,5 C 3,5 km/h (1 Bft)
17.10.2013 05:00 6,6 C 90 % 1016,2 hPa 0,7 l/m 1,9 km/h (1 Bft) NO 45 5,1 C 6,5 C 3,5 km/h (1 Bft)
17.10.2013 05:05 6,5 C 90 % 1016,2 hPa 0,0 l/m 1,9 km/h (1 Bft) NO 45 5,0 C 6,5 C 3,5 km/h (1 Bft)
17.10.2013 05:10 6,5 C 91 % 1016,6 hPa 0,0 l/m 1,9 km/h (1 Bft) NO 45 5,1 C 6,5 C 3,5 km/h (1 Bft)
17.10.2013 05:15 6,5 C 92 % 1016,6 hPa 0,0 l/m 0,0 km/h (0 Bft) NO 45 5,3 C 6,5 C 0,0 km/h (0 Bft)
17.10.2013 05:20 6,5 C 92 % 1016,6 hPa 0,0 l/m 0,0 km/h (0 Bft) NO 45 5,3 C 6,5 C 0,0 km/h (0 Bft)
17.10.2013 05:25 6,5 C 92 % 1016,6 hPa 0,0 l/m 0,0 km/h (0 Bft) NO 45 5,3 C 6,5 C 0,0 km/h (0 Bft)
17.10.2013 05:30 6,5 C 93 % 1016,9 hPa 0,0 l/m 0,0 km/h (0 Bft) NO 45 5,5 C 6,5 C 0,0 km/h (0 Bft)
17.10.2013 05:35 6,5 C 93 % 1016,9 hPa 0,0 l/m 0,0 km/h (0 Bft) NO 45 5,5 C 6,5 C 0,0 km/h (0 Bft)
17.10.2013 05:40 6,6 C 93 % 1016,9 hPa 0,0 l/m 0,0 km/h (0 Bft) NO 45 5,6 C 6,5 C 0,0 km/h (0 Bft)
17.10.2013 05:45 6,7 C 93 % 1016,9 hPa 0,0 l/m 0,0 km/h (0 Bft) NO 45 5,6 C 6,5 C 0,0 km/h (0 Bft)
17.10.2013 05:50 6,7 C 94 % 1017,1 hPa 0,0 l/m 0,0 km/h (0 Bft) NO 45 5,8 C 6,5 C 0,0 km/h (0 Bft)
17.10.2013 05:55 6,7 C 94 % 1017,1 hPa 0,0 l/m 0,0 km/h (0 Bft) NO 45 5,8 C 6,5 C 0,0 km/h (0 Bft)
17.10.2013 06:00 6,7 C 94 % 1017,1 hPa 0,0 l/m 0,0 km/h (0 Bft) NO 45 5,8 C 6,5 C 0,0 km/h (0 Bft)
17.10.2013 06:05 6,7 C 94 % 1017,1 hPa 0,7 l/m 0,0 km/h (0 Bft) NO 45 5,8 C 6,5 C 0,0 km/h (0 Bft)
17.10.2013 06:10 6,8 C 94 % 1017,6 hPa 0,0 l/m 0,0 km/h (0 Bft) NO 45 5,9 C 6,5 C 0,0 km/h (0 Bft)
17.10.2013 06:15 6,9 C 94 % 1017,6 hPa 0,0 l/m 0,0 km/h (0 Bft) NO 45 6,0 C 6,5 C 0,0 km/h (0 Bft)
17.10.2013 06:20 7,1 C 94 % 1017,6 hPa 0,0 l/m 0,0 km/h (0 Bft) NO 45 6,2 C 6,5 C 0,0 km/h (0 Bft)
17.10.2013 06:25 7,5 C 94 % 1017,6 hPa 0,0 l/m 0,0 km/h (0 Bft) NO 45 6,6 C 6,5 C 0,0 km/h (0 Bft)
17.10.2013 06:30 8,0 C 94 % 1017,9 hPa 0,0 l/m 0,0 km/h (0 Bft) NO 45 7,1 C 6,5 C 0,0 km/h (0 Bft)
17.10.2013 06:35 8,2 C 94 % 1017,9 hPa 0,0 l/m 0,0 km/h (0 Bft) NO 45 7,3 C 6,5 C 0,0 km/h (0 Bft)
17.10.2013 06:40 8,4 C 94 % 1017,9 hPa 0,0 l/m 0,0 km/h (0 Bft) NO 45 7,5 C 6,5 C 0,0 km/h (0 Bft)
17.10.2013 06:45 8,5 C 94 % 1017,9 hPa 0,7 l/m 0,0 km/h (0 Bft) NO 45 7,6 C 6,5 C 0,0 km/h (0 Bft)
17.10.2013 06:50 8,8 C 94 % 1018,1 hPa 0,0 l/m 0,0 km/h (0 Bft) NO 45 7,9 C 6,5 C 0,0 km/h (0 Bft)
17.10.2013 06:55 8,9 C 95 % 1018,1 hPa 0,0 l/m 0,0 km/h (0 Bft) NO 45 8,1 C 6,5 C 0,0 km/h (0 Bft)
17.10.2013 07:00 8,9 C 95 % 1018,1 hPa 0,0 l/m 0,0 km/h (0 Bft) NO 45 8,1 C 6,5 C 0,0 km/h (0 Bft)
17.10.2013 07:05 8,7 C 95 % 1018,1 hPa 0,0 l/m 0,0 km/h (0 Bft) NO 45 7,9 C 6,5 C 0,0 km/h (0 Bft)
17.10.2013 07:10 8,4 C 95 % 1018,1 hPa 0,0 l/m 0,0 km/h (0 Bft) NO 45 7,6 C 6,5 C 0,0 km/h (0 Bft)
17.10.2013 07:15 8,4 C 95 % 1018,1 hPa 0,0 l/m 0,0 km/h (0 Bft) NO 45 7,6 C 6,5 C 0,0 km/h (0 Bft)
17.10.2013 07:20 8,5 C 94 % 1018,1 hPa 0,0 l/m 0,0 km/h (0 Bft) NO 45 7,6 C 6,5 C 0,0 km/h (0 Bft)
17.10.2013 07:25 8,4 C 94 % 1018,1 hPa 0,0 l/m 0,0 km/h (0 Bft) NO 45 7,5 C 6,5 C 0,0 km/h (0 Bft)
17.10.2013 07:30 8,2 C 94 % 1018,4 hPa 0,0 l/m 0,0 km/h (0 Bft) NO 45 7,3 C 6,5 C 0,0 km/h (0 Bft)
17.10.2013 07:35 8,0 C 94 % 1018,4 hPa 0,0 l/m 0,0 km/h (0 Bft) NO 45 7,1 C 6,5 C 0,0 km/h (0 Bft)
17.10.2013 07:40 7,9 C 94 % 1018,4 hPa 0,0 l/m 0,0 km/h (0 Bft) NO 45 7,0 C 6,5 C 0,0 km/h (0 Bft)
17.10.2013 07:45 7,8 C 94 % 1018,4 hPa 0,0 l/m 0,0 km/h (0 Bft) NO 45 6,9 C 6,5 C 0,0 km/h (0 Bft)
17.10.2013 07:50 7,7 C 94 % 1018,6 hPa 0,0 l/m 10,0 km/h (2 Bft) W-SW 247 6,8 C 3,7 C 10,0 km/h (2 Bft)
17.10.2013 07:55 7,9 C 94 % 1018,6 hPa 0,0 l/m 11,1 km/h (2 Bft) S 180 7,0 C 2,8 C 17,5 km/h (3 Bft)
17.10.2013 08:00 7,8 C 94 % 1018,6 hPa 0,0 l/m 11,1 km/h (2 Bft) SW 225 6,9 C 2,8 C 20,9 km/h (4 Bft)
17.10.2013 08:05 7,7 C 94 % 1018,6 hPa 0,0 l/m 11,3 km/h (2 Bft) O-SO 112 6,8 C 2,7 C 9,2 km/h (2 Bft)
17.10.2013 08:10 7,7 C 94 % 1019,1 hPa 0,0 l/m 10,0 km/h (2 Bft) O-SO 112 6,8 C 3,7 C 8,0 km/h (2 Bft)
17.10.2013 08:15 7,7 C 94 % 1019,1 hPa 0,0 l/m 10,0 km/h (2 Bft) O-SO 112 6,8 C 3,7 C 8,0 km/h (2 Bft)
17.10.2013 08:20 7,7 C 94 % 1019,1 hPa 0,0 l/m 10,0 km/h (2 Bft) O-SO 112 6,8 C 3,7 C 8,0 km/h (2 Bft)
17.10.2013 08:25 7,7 C 94 % 1019,1 hPa 0,0 l/m 0,0 km/h (0 Bft) O-SO 112 6,8 C 6,5 C 0,0 km/h (0 Bft)
17.10.2013 08:30 7,7 C 94 % 1019,9 hPa 0,0 l/m 0,0 km/h (0 Bft) O-SO 112 6,8 C 6,5 C 0,0 km/h (0 Bft)
17.10.2013 08:35 7,8 C 94 % 1019,9 hPa 0,0 l/m 0,0 km/h (0 Bft) O-SO 112 6,9 C 6,5 C 0,0 km/h (0 Bft)
17.10.2013 08:40 7,5 C 94 % 1019,9 hPa 0,0 l/m 0,0 km/h (0 Bft) O-SO 112 6,6 C 6,5 C 0,0 km/h (0 Bft)
17.10.2013 08:45 7,5 C 94 % 1019,9 hPa 0,0 l/m 0,0 km/h (0 Bft) O-SO 112 6,6 C 6,5 C 0,0 km/h (0 Bft)
17.10.2013 08:50 7,2 C 94 % 1019,8 hPa 0,0 l/m 0,0 km/h (0 Bft) O-SO 112 6,3 C 6,5 C 0,0 km/h (0 Bft)
17.10.2013 08:55 7,2 C 94 % 1019,8 hPa 0,0 l/m 0,0 km/h (0 Bft) O-SO 112 6,3 C 6,5 C 0,0 km/h (0 Bft)
17.10.2013 09:00 7,2 C 94 % 1019,8 hPa 0,0 l/m 3,1 km/h (1 Bft) NO 45 6,3 C 7,7 C 5,0 km/h (1 Bft)
17.10.2013 09:05 7,2 C 94 % 1019,8 hPa 0,0 l/m 2,7 km/h (1 Bft) O-SO 112 6,3 C 7,6 C 7,9 km/h (2 Bft)
17.10.2013 09:10 7,1 C 94 % 1019,8 hPa 0,0 l/m 2,6 km/h (1 Bft) O-SO 112 6,2 C 7,6 C 2,1 km/h (1 Bft)
17.10.2013 09:15 7,1 C 94 % 1019,8 hPa 0,0 l/m 2,6 km/h (1 Bft) O-SO 112 6,2 C 7,6 C 3,5 km/h (1 Bft)
17.10.2013 09:20 7,3 C 94 % 1019,8 hPa 0,0 l/m 3,2 km/h (1 Bft) S 180 6,4 C 8,2 C 5,6 km/h (1 Bft)
17.10.2013 09:25 7,5 C 94 % 1019,8 hPa 0,0 l/m 5,5 km/h (1 Bft) S-SW 202 6,6 C 8,2 C 7,2 km/h (2 Bft)
17.10.2013 09:30 7,6 C 94 % 1020,0 hPa 0,0 l/m 7,7 km/h (2 Bft) S-SO 157 6,7 C 8,4 C 12,9 km/h (3 Bft)
17.10.2013 09:35 7,7 C 94 % 1020,0 hPa 0,0 l/m 8,0 km/h (2 Bft) S-SO 157 6,8 C 9,3 C 5,1 km/h (1 Bft)
17.10.2013 09:40 7,7 C 94 % 1020,0 hPa 0,0 l/m 8,5 km/h (2 Bft) NW 315 6,8 C 10,1 C 15,0 km/h (3 Bft)
17.10.2013 09:45 7,8 C 94 % 1020,0 hPa 0,0 l/m 8,4 km/h (2 Bft) S-SW 202 6,9 C 10,4 C 6,9 km/h (2 Bft)
17.10.2013 09:50 8,0 C 93 % 1020,0 hPa 0,0 l/m 9,0 km/h (2 Bft) SO 135 6,9 C 10,5 C 9,3 km/h (2 Bft)
17.10.2013 09:55 8,1 C 93 % 1020,0 hPa 0,0 l/m 9,5 km/h (2 Bft) S 180 7,0 C 10,1 C 14,8 km/h (3 Bft)
17.10.2013 10:00 8,2 C 92 % 1020,0 hPa 0,0 l/m 9,7 km/h (2 Bft) S 180 7,0 C 10,1 C 13,4 km/h (3 Bft)
17.10.2013 10:05 8,2 C 91 % 1020,0 hPa 0,0 l/m 9,3 km/h (2 Bft) S 180 6,8 C 10,5 C 10,1 km/h (2 Bft)
17.10.2013 10:08 8,4 C 90 % 1020,3 hPa 0,0 l/m 9,7 km/h (2 Bft) S 180 6,9 C 9,9 C 10,9 km/h (2 Bft)
17.10.2013 10:10 8,4 C 90 % 1020,3 hPa 0,0 l/m 9,7 km/h (2 Bft) S 180 6,9 C 9,9 C 10,9 km/h (2 Bft)
17.10.2013 10:15 8,5 C 90 % 1020,3 hPa 0,0 l/m 10,5 km/h (2 Bft) S 180 7,0 C 8,9 C 14,0 km/h (3 Bft)
17.10.2013 10:20 8,7 C 89 % 1020,3 hPa 0,0 l/m 9,7 km/h (2 Bft) S 180 7,0 C 9,2 C 21,1 km/h (4 Bft)
17.10.2013 10:25 8,8 C 89 % 1020,3 hPa 0,0 l/m 9,0 km/h (2 Bft) S-SW 202 7,1 C 9,4 C 14,0 km/h (3 Bft)
17.10.2013 10:30 9,1 C 88 % 1020,1 hPa 0,0 l/m 11,1 km/h (2 Bft) S 180 7,2 C 7,4 C 26,1 km/h (4 Bft)
17.10.2013 10:35 9,2 C 87 % 1020,1 hPa 0,0 l/m 10,1 km/h (2 Bft) S-SW 202 7,2 C 7,6 C 7,4 km/h (2 Bft)
17.10.2013 10:40 9,3 C 86 % 1020,1 hPa 0,0 l/m 9,8 km/h (2 Bft) W-SW 247 7,1 C 7,9 C 15,1 km/h (3 Bft)
17.10.2013 10:45 9,6 C 86 % 1020,1 hPa 0,0 l/m 10,1 km/h (2 Bft) S 180 7,4 C 8,2 C 18,7 km/h (3 Bft)
17.10.2013 10:50 9,6 C 85 % 1020,6 hPa 0,0 l/m 11,7 km/h (2 Bft) S-SO 157 7,2 C 7,6 C 14,6 km/h (3 Bft)
17.10.2013 10:55 9,7 C 84 % 1020,6 hPa 0,0 l/m 13,5 km/h (3 Bft) S 180 7,1 C 6,9 C 20,4 km/h (4 Bft)
17.10.2013 11:00 9,6 C 85 % 1020,6 hPa 0,0 l/m 11,3 km/h (2 Bft) S 180 7,2 C 9,4 C 8,2 km/h (2 Bft)
17.10.2013 11:05 9,8 C 85 % 1020,6 hPa 0,0 l/m 9,8 km/h (2 Bft) S 180 7,4 C 11,1 C 13,7 km/h (3 Bft)
17.10.2013 11:10 10,2 C 84 % 1021,2 hPa 0,0 l/m 9,8 km/h (2 Bft) S 180 7,6 C 12,0 C 12,6 km/h (3 Bft)
17.10.2013 11:15 11,0 C 80 % 1021,2 hPa 0,0 l/m 9,8 km/h (2 Bft) S 180 7,7 C 12,0 C 12,6 km/h (3 Bft)
17.10.2013 11:20 12,5 C 74 % 1021,2 hPa 0,0 l/m 9,8 km/h (2 Bft) S 180 8,0 C 12,0 C 12,6 km/h (3 Bft)
17.10.2013 11:25 13,1 C 73 % 1021,2 hPa 0,0 l/m 9,5 km/h (2 Bft) SW 225 8,4 C 13,5 C 10,5 km/h (2 Bft)
17.10.2013 11:30 13,2 C 65 % 1021,2 hPa 0,0 l/m 8,4 km/h (2 Bft) S 180 6,8 C 14,5 C 8,0 km/h (2 Bft)
17.10.2013 11:35 12,4 C 70 % 1021,2 hPa 0,0 l/m 8,4 km/h (2 Bft) S 180 7,1 C 14,5 C 8,0 km/h (2 Bft)
17.10.2013 11:40 12,1 C 69 % 1021,2 hPa 0,0 l/m 9,0 km/h (2 Bft) S-SW 202 6,6 C 14,5 C 11,4 km/h (2 Bft)
17.10.2013 11:45 11,7 C 69 % 1021,2 hPa 0,0 l/m 9,2 km/h (2 Bft) S 180 6,2 C 14,6 C 9,3 km/h (2 Bft)
17.10.2013 11:50 11,7 C 69 % 1021,1 hPa 0,0 l/m 9,3 km/h (2 Bft) W-SW 247 6,2 C 14,6 C 14,6 km/h (3 Bft)
17.10.2013 11:55 11,9 C 69 % 1021,1 hPa 0,0 l/m 9,0 km/h (2 Bft) S 180 6,4 C 14,9 C 11,1 km/h (2 Bft)
17.10.2013 12:00 13,5 C 58 % 1021,1 hPa 0,0 l/m 8,7 km/h (2 Bft) S 180 5,4 C 15,6 C 16,4 km/h (3 Bft)
17.10.2013 12:05 13,7 C 56 % 1021,1 hPa 0,0 l/m 10,1 km/h (2 Bft) S-SW 202 5,1 C 14,7 C 11,6 km/h (2 Bft)
17.10.2013 12:10 13,9 C 55 % 1021,4 hPa 0,0 l/m 10,1 km/h (2 Bft) S 180 5,0 C 14,6 C 10,3 km/h (2 Bft)
17.10.2013 12:15 13,0 C 59 % 1021,4 hPa 0,0 l/m 10,1 km/h (2 Bft) S 180 5,2 C 14,4 C 20,0 km/h (4 Bft)
17.10.2013 12:20 13,4 C 59 % 1021,4 hPa 0,0 l/m 10,3 km/h (2 Bft) S 180 5,6 C 14,4 C 9,8 km/h (2 Bft)
17.10.2013 12:25 13,2 C 59 % 1021,4 hPa 0,0 l/m 10,3 km/h (2 Bft) S 180 5,4 C 14,4 C 8,4 km/h (2 Bft)
17.10.2013 12:30 13,1 C 59 % 1021,2 hPa 0,0 l/m 12,1 km/h (2 Bft) S-SW 202 5,3 C 13,5 C 12,2 km/h (2 Bft)
17.10.2013 12:35 13,3 C 58 % 1021,2 hPa 0,0 l/m 12,4 km/h (3 Bft) S 180 5,2 C 13,3 C 7,6 km/h (2 Bft)
17.10.2013 12:40 13,3 C 58 % 1021,2 hPa 0,0 l/m 12,1 km/h (2 Bft) S 180 5,2 C 13,5 C 13,2 km/h (3 Bft)
17.10.2013 12:45 13,3 C 57 % 1021,2 hPa 0,0 l/m 10,6 km/h (2 Bft) S 180 5,0 C 14,4 C 9,5 km/h (2 Bft)
17.10.2013 12:50 13,3 C 58 % 1021,3 hPa 0,0 l/m 9,5 km/h (2 Bft) S-SO 157 5,2 C 15,4 C 17,4 km/h (3 Bft)
17.10.2013 12:55 13,3 C 58 % 1021,3 hPa 0,0 l/m 9,7 km/h (2 Bft) S-SW 202 5,2 C 15,4 C 8,7 km/h (2 Bft)
17.10.2013 13:00 13,3 C 57 % 1021,3 hPa 0,0 l/m 10,0 km/h (2 Bft) S-SO 157 5,0 C 15,4 C 14,6 km/h (3 Bft)
17.10.2013 13:05 13,5 C 57 % 1021,3 hPa 0,0 l/m 10,0 km/h (2 Bft) S-SO 157 5,2 C 15,4 C 14,6 km/h (3 Bft)
17.10.2013 13:10 13,4 C 57 % 1021,4 hPa 0,0 l/m 10,0 km/h (2 Bft) S 180 5,1 C 15,5 C 12,1 km/h (2 Bft)
17.10.2013 13:15 13,0 C 56 % 1021,4 hPa 0,0 l/m 10,0 km/h (2 Bft) S 180 4,4 C 15,5 C 12,1 km/h (2 Bft)
17.10.2013 13:20 12,8 C 58 % 1021,4 hPa 0,0 l/m 10,0 km/h (2 Bft) S 180 4,7 C 15,5 C 12,1 km/h (2 Bft)
17.10.2013 13:25 13,0 C 56 % 1021,4 hPa 0,0 l/m 10,0 km/h (2 Bft) S 180 4,4 C 15,5 C 12,1 km/h (2 Bft)
17.10.2013 13:30 13,4 C 53 % 1021,2 hPa 0,0 l/m 0,0 km/h (0 Bft) S 180 4,0 C 17,2 C 0,0 km/h (0 Bft)
17.10.2013 13:35 13,3 C 53 % 1021,2 hPa 0,0 l/m 0,0 km/h (0 Bft) S 180 3,9 C 17,2 C 0,0 km/h (0 Bft)
17.10.2013 13:40 13,5 C 55 % 1021,2 hPa 0,0 l/m 0,0 km/h (0 Bft) S 180 4,6 C 17,2 C 0,0 km/h (0 Bft)
17.10.2013 13:45 13,9 C 54 % 1021,2 hPa 0,0 l/m 0,0 km/h (0 Bft) S 180 4,7 C 17,2 C 0,0 km/h (0 Bft)
17.10.2013 13:50 14,3 C 52 % 1021,2 hPa 0,0 l/m 0,0 km/h (0 Bft) S 180 4,6 C 17,2 C 0,0 km/h (0 Bft)
17.10.2013 13:55 14,3 C 51 % 1021,2 hPa 0,0 l/m 0,0 km/h (0 Bft) S 180 4,3 C 17,2 C 0,0 km/h (0 Bft)
17.10.2013 14:00 14,2 C 49 % 1021,2 hPa 0,0 l/m 0,0 km/h (0 Bft) S 180 3,6 C 17,2 C 0,0 km/h (0 Bft)
17.10.2013 14:05 14,1 C 49 % 1021,2 hPa 0,0 l/m 0,0 km/h (0 Bft) S 180 3,6 C 17,2 C 0,0 km/h (0 Bft)
17.10.2013 14:10 13,6 C 51 % 1021,3 hPa 0,0 l/m 0,0 km/h (0 Bft) S 180 3,7 C 17,2 C 0,0 km/h (0 Bft)
17.10.2013 14:15 13,3 C 52 % 1021,3 hPa 0,0 l/m 0,0 km/h (0 Bft) S 180 3,7 C 17,2 C 0,0 km/h (0 Bft)
17.10.2013 14:20 13,2 C 53 % 1021,3 hPa 0,0 l/m 0,0 km/h (0 Bft) S 180 3,8 C 17,2 C 0,0 km/h (0 Bft)
17.10.2013 14:25 13,1 C 54 % 1021,3 hPa 0,0 l/m 0,0 km/h (0 Bft) S 180 4,0 C 17,2 C 0,0 km/h (0 Bft)
17.10.2013 14:30 13,0 C 54 % 1021,2 hPa 0,0 l/m 0,0 km/h (0 Bft) S 180 3,9 C 17,2 C 0,0 km/h (0 Bft)
17.10.2013 14:35 12,9 C 55 % 1021,2 hPa 0,0 l/m 0,0 km/h (0 Bft) S 180 4,1 C 17,2 C 0,0 km/h (0 Bft)
17.10.2013 14:40 12,9 C 55 % 1021,2 hPa 0,0 l/m 0,0 km/h (0 Bft) S 180 4,1 C 17,2 C 0,0 km/h (0 Bft)
17.10.2013 14:45 13,0 C 54 % 1021,2 hPa 0,0 l/m 0,0 km/h (0 Bft) S 180 3,9 C 17,2 C 0,0 km/h (0 Bft)
17.10.2013 14:50 13,0 C 53 % 1020,6 hPa 0,0 l/m 0,0 km/h (0 Bft) S 180 3,6 C 17,2 C 0,0 km/h (0 Bft)
17.10.2013 14:55 13,0 C 54 % 1020,6 hPa 0,0 l/m 0,0 km/h (0 Bft) S 180 3,9 C 17,2 C 0,0 km/h (0 Bft)
17.10.2013 15:00 12,9 C 56 % 1020,6 hPa 0,0 l/m 0,0 km/h (0 Bft) S 180 4,3 C 17,2 C 0,0 km/h (0 Bft)
17.10.2013 15:05 13,0 C 56 % 1020,6 hPa 0,0 l/m 0,0 km/h (0 Bft) S 180 4,4 C 17,2 C 0,0 km/h (0 Bft)
17.10.2013 15:10 12,8 C 59 % 1020,4 hPa 0,0 l/m 0,0 km/h (0 Bft) S 180 5,0 C 17,2 C 0,0 km/h (0 Bft)
17.10.2013 15:15 12,8 C 59 % 1020,4 hPa 0,0 l/m 0,0 km/h (0 Bft) S 180 5,0 C 17,2 C 0,0 km/h (0 Bft)
17.10.2013 15:20 12,8 C 59 % 1020,4 hPa 0,0 l/m 0,0 km/h (0 Bft) S 180 5,0 C 17,2 C 0,0 km/h (0 Bft)
17.10.2013 15:25 12,7 C 59 % 1020,4 hPa 0,0 l/m 0,0 km/h (0 Bft) S 180 4,9 C 17,2 C 0,0 km/h (0 Bft)
17.10.2013 15:30 12,6 C 59 % 1020,3 hPa 0,0 l/m 0,0 km/h (0 Bft) S 180 4,8 C 17,2 C 0,0 km/h (0 Bft)
17.10.2013 15:35 12,7 C 59 % 1020,3 hPa 0,0 l/m 0,0 km/h (0 Bft) S 180 4,9 C 17,2 C 0,0 km/h (0 Bft)
17.10.2013 15:40 12,6 C 59 % 1020,3 hPa 0,0 l/m 0,0 km/h (0 Bft) S 180 4,8 C 17,2 C 0,0 km/h (0 Bft)
17.10.2013 15:45 12,6 C 59 % 1020,3 hPa 0,0 l/m 0,0 km/h (0 Bft) S 180 4,8 C 17,2 C 0,0 km/h (0 Bft)
17.10.2013 15:50 12,6 C 59 % 1020,5 hPa 0,0 l/m 0,0 km/h (0 Bft) S 180 4,8 C 17,2 C 0,0 km/h (0 Bft)
17.10.2013 15:55 12,7 C 59 % 1020,5 hPa 0,0 l/m 0,0 km/h (0 Bft) S 180 4,9 C 17,2 C 0,0 km/h (0 Bft)
17.10.2013 16:00 12,7 C 58 % 1020,5 hPa 0,0 l/m 0,0 km/h (0 Bft) S 180 4,7 C 17,2 C 0,0 km/h (0 Bft)
17.10.2013 16:05 12,6 C 58 % 1020,5 hPa 0,0 l/m 0,0 km/h (0 Bft) S 180 4,6 C 17,2 C 0,0 km/h (0 Bft)
17.10.2013 16:08 12,6 C 58 % 1020,0 hPa 0,0 l/m 0,0 km/h (0 Bft) S 180 4,6 C 17,2 C 0,0 km/h (0 Bft)
17.10.2013 16:10 12,6 C 58 % 1020,0 hPa 0,0 l/m 0,0 km/h (0 Bft) S 180 4,6 C 17,2 C 0,0 km/h (0 Bft)
17.10.2013 16:15 12,5 C 58 % 1020,0 hPa 0,0 l/m 0,0 km/h (0 Bft) S 180 4,5 C 17,2 C 0,0 km/h (0 Bft)
17.10.2013 16:20 12,4 C 58 % 1020,0 hPa 0,0 l/m 0,0 km/h (0 Bft) S 180 4,4 C 17,2 C 0,0 km/h (0 Bft)
17.10.2013 16:25 12,3 C 59 % 1020,0 hPa 0,0 l/m 0,0 km/h (0 Bft) S 180 4,5 C 17,2 C 0,0 km/h (0 Bft)
17.10.2013 16:30 12,4 C 58 % 1019,9 hPa 0,0 l/m 0,0 km/h (0 Bft) S 180 4,4 C 17,2 C 0,0 km/h (0 Bft)
17.10.2013 16:35 12,3 C 59 % 1019,9 hPa 0,0 l/m 0,0 km/h (0 Bft) S 180 4,5 C 17,2 C 0,0 km/h (0 Bft)
17.10.2013 16:40 12,0 C 59 % 1019,9 hPa 0,0 l/m 0,0 km/h (0 Bft) S 180 4,2 C 17,2 C 0,0 km/h (0 Bft)
17.10.2013 16:45 12,1 C 59 % 1019,9 hPa 0,0 l/m 0,0 km/h (0 Bft) S 180 4,3 C 17,2 C 0,0 km/h (0 Bft)
17.10.2013 16:50 11,8 C 60 % 1019,9 hPa 0,0 l/m 0,0 km/h (0 Bft) S 180 4,3 C 17,2 C 0,0 km/h (0 Bft)
17.10.2013 16:55 11,9 C 60 % 1019,9 hPa 0,0 l/m 0,0 km/h (0 Bft) S 180 4,4 C 17,2 C 0,0 km/h (0 Bft)
17.10.2013 17:00 11,7 C 61 % 1019,9 hPa 0,0 l/m 0,0 km/h (0 Bft) S 180 4,4 C 17,2 C 0,0 km/h (0 Bft)
17.10.2013 17:05 11,6 C 62 % 1019,9 hPa 0,0 l/m 0,0 km/h (0 Bft) S 180 4,6 C 17,2 C 0,0 km/h (0 Bft)
17.10.2013 17:10 11,3 C 63 % 1019,8 hPa 0,0 l/m 0,0 km/h (0 Bft) S 180 4,5 C 17,2 C 0,0 km/h (0 Bft)
17.10.2013 17:15 11,3 C 64 % 1019,8 hPa 0,0 l/m 0,0 km/h (0 Bft) S 180 4,7 C 17,2 C 0,0 km/h (0 Bft)
17.10.2013 17:20 10,9 C 66 % 1019,8 hPa 0,0 l/m 0,0 km/h (0 Bft) S 180 4,8 C 17,2 C 0,0 km/h (0 Bft)
17.10.2013 17:25 11,2 C 66 % 1019,8 hPa 0,0 l/m 0,0 km/h (0 Bft) S 180 5,1 C 17,2 C 0,0 km/h (0 Bft)
17.10.2013 17:30 11,0 C 66 % 1019,9 hPa 0,0 l/m 0,0 km/h (0 Bft) S 180 4,9 C 17,2 C 0,0 km/h (0 Bft)
17.10.2013 17:35 10,6 C 67 % 1019,9 hPa 0,0 l/m 0,0 km/h (0 Bft) S 180 4,7 C 17,2 C 0,0 km/h (0 Bft)
17.10.2013 17:40 10,6 C 68 % 1019,9 hPa 0,0 l/m 0,0 km/h (0 Bft) S 180 4,9 C 17,2 C 0,0 km/h (0 Bft)
17.10.2013 17:45 10,4 C 68 % 1019,9 hPa 0,0 l/m 0,0 km/h (0 Bft) S 180 4,8 C 17,2 C 0,0 km/h (0 Bft)
17.10.2013 17:50 10,1 C 69 % 1019,8 hPa 0,0 l/m 0,0 km/h (0 Bft) S 180 4,7 C 17,2 C 0,0 km/h (0 Bft)
17.10.2013 17:55 10,0 C 69 % 1019,8 hPa 0,0 l/m 0,0 km/h (0 Bft) S 180 4,6 C 17,2 C 0,0 km/h (0 Bft)
17.10.2013 18:00 10,0 C 70 % 1019,8 hPa 0,0 l/m 0,0 km/h (0 Bft) S 180 4,8 C 17,2 C 0,0 km/h (0 Bft)
17.10.2013 18:05 9,9 C 71 % 1019,8 hPa 0,0 l/m 0,0 km/h (0 Bft) S 180 4,9 C 17,2 C 0,0 km/h (0 Bft)
17.10.2013 18:10 9,8 C 71 % 1019,9 hPa 0,0 l/m 0,0 km/h (0 Bft) S 180 4,8 C 17,2 C 0,0 km/h (0 Bft)
17.10.2013 18:15 9,6 C 72 % 1019,9 hPa 0,0 l/m 0,0 km/h (0 Bft) S 180 4,8 C 17,2 C 0,0 km/h (0 Bft)
17.10.2013 18:20 9,5 C 73 % 1019,9 hPa 0,0 l/m 0,0 km/h (0 Bft) S 180 4,9 C 17,2 C 0,0 km/h (0 Bft)
17.10.2013 18:25 9,3 C 73 % 1019,9 hPa 0,0 l/m 0,0 km/h (0 Bft) S 180 4,7 C 17,2 C 0,0 km/h (0 Bft)
17.10.2013 18:30 9,3 C 74 % 1019,6 hPa 0,0 l/m 0,0 km/h (0 Bft) S 180 4,9 C 17,2 C 0,0 km/h (0 Bft)
17.10.2013 18:35 9,0 C 74 % 1019,6 hPa 0,0 l/m 0,0 km/h (0 Bft) S 180 4,6 C 17,2 C 0,0 km/h (0 Bft)
17.10.2013 18:40 9,0 C 75 % 1019,6 hPa 0,0 l/m 0,0 km/h (0 Bft) S 180 4,8 C 17,2 C 0,0 km/h (0 Bft)
17.10.2013 18:45 8,7 C 76 % 1019,6 hPa 0,0 l/m 0,0 km/h (0 Bft) S 180 4,7 C 17,2 C 0,0 km/h (0 Bft)
17.10.2013 18:50 8,3 C 76 % 1019,7 hPa 0,0 l/m 0,0 km/h (0 Bft) S 180 4,3 C 17,2 C 0,0 km/h (0 Bft)
17.10.2013 18:55 8,1 C 77 % 1019,7 hPa 0,0 l/m 0,0 km/h (0 Bft) S 180 4,3 C 17,2 C 0,0 km/h (0 Bft)
17.10.2013 19:00 8,2 C 79 % 1019,7 hPa 0,0 l/m 0,0 km/h (0 Bft) S 180 4,8 C 17,2 C 0,0 km/h (0 Bft)
17.10.2013 19:05 8,1 C 80 % 1019,7 hPa 0,0 l/m 0,0 km/h (0 Bft) S 180 4,9 C 17,2 C 0,0 km/h (0 Bft)
17.10.2013 19:10 7,8 C 80 % 1019,9 hPa 0,0 l/m 0,0 km/h (0 Bft) S 180 4,6 C 17,2 C 0,0 km/h (0 Bft)
17.10.2013 19:15 7,7 C 80 % 1019,9 hPa 0,0 l/m 0,0 km/h (0 Bft) S 180 4,5 C 17,2 C 0,0 km/h (0 Bft)
17.10.2013 19:20 7,6 C 81 % 1019,9 hPa 0,0 l/m 0,0 km/h (0 Bft) S 180 4,6 C 17,2 C 0,0 km/h (0 Bft)
17.10.2013 19:25 7,6 C 82 % 1019,9 hPa 0,0 l/m 0,0 km/h (0 Bft) S 180 4,7 C 17,2 C 0,0 km/h (0 Bft)
17.10.2013 19:30 7,7 C 83 % 1020,1 hPa 0,0 l/m 0,0 km/h (0 Bft) S 180 5,0 C 17,2 C 0,0 km/h (0 Bft)
17.10.2013 19:35 7,7 C 83 % 1020,1 hPa 0,0 l/m 0,0 km/h (0 Bft) S 180 5,0 C 17,2 C 0,0 km/h (0 Bft)
17.10.2013 19:40 7,7 C 84 % 1020,1 hPa 0,0 l/m 0,0 km/h (0 Bft) S 180 5,2 C 17,2 C 0,0 km/h (0 Bft)
17.10.2013 19:45 7,6 C 83 % 1020,1 hPa 0,0 l/m 0,0 km/h (0 Bft) S 180 4,9 C 17,2 C 0,0 km/h (0 Bft)
17.10.2013 19:50 7,6 C 84 % 1020,1 hPa 0,0 l/m 0,0 km/h (0 Bft) S 180 5,1 C 17,2 C 0,0 km/h (0 Bft)
17.10.2013 19:55 7,7 C 84 % 1020,1 hPa 0,0 l/m 0,0 km/h (0 Bft) S 180 5,2 C 17,2 C 0,0 km/h (0 Bft)
17.10.2013 20:00 7,6 C 83 % 1020,1 hPa 0,0 l/m 0,0 km/h (0 Bft) S 180 4,9 C 17,2 C 0,0 km/h (0 Bft)
17.10.2013 20:05 7,6 C 83 % 1020,1 hPa 0,0 l/m 0,0 km/h (0 Bft) S 180 4,9 C 17,2 C 0,0 km/h (0 Bft)
17.10.2013 20:10 7,7 C 84 % 1020,1 hPa 0,0 l/m 0,0 km/h (0 Bft) S 180 5,2 C 17,2 C 0,0 km/h (0 Bft)
17.10.2013 20:15 7,8 C 84 % 1020,1 hPa 0,0 l/m 0,0 km/h (0 Bft) S 180 5,3 C 17,2 C 0,0 km/h (0 Bft)
17.10.2013 20:20 7,8 C 83 % 1020,1 hPa 0,0 l/m 0,0 km/h (0 Bft) S 180 5,1 C 17,2 C 0,0 km/h (0 Bft)
17.10.2013 20:25 7,8 C 83 % 1020,1 hPa 0,0 l/m 0,0 km/h (0 Bft) S 180 5,1 C 17,2 C 0,0 km/h (0 Bft)
17.10.2013 20:30 7,5 C 83 % 1020,0 hPa 0,0 l/m 0,0 km/h (0 Bft) S 180 4,8 C 17,2 C 0,0 km/h (0 Bft)
17.10.2013 20:35 7,4 C 84 % 1020,0 hPa 0,0 l/m 0,0 km/h (0 Bft) S 180 4,9 C 17,2 C 0,0 km/h (0 Bft)
17.10.2013 20:40 7,3 C 84 % 1020,0 hPa 0,0 l/m 0,0 km/h (0 Bft) S 180 4,8 C 17,2 C 0,0 km/h (0 Bft)
17.10.2013 20:45 7,3 C 85 % 1020,0 hPa 0,0 l/m 1,8 km/h (1 Bft) O 90 4,9 C 7,4 C 0,0 km/h (0 Bft)
17.10.2013 20:50 7,0 C 84 % 1020,1 hPa 0,0 l/m 1,8 km/h (1 Bft) O 90 4,5 C 7,2 C 2,4 km/h (1 Bft)
17.10.2013 20:55 7,1 C 85 % 1020,1 hPa 0,0 l/m 1,8 km/h (1 Bft) O-NO 67 4,8 C 7,1 C 3,5 km/h (1 Bft)
17.10.2013 21:00 6,7 C 85 % 1020,1 hPa 0,0 l/m 1,6 km/h (1 Bft) O 90 4,4 C 7,0 C 0,0 km/h (0 Bft)
17.10.2013 21:05 6,8 C 85 % 1020,1 hPa 0,0 l/m 1,3 km/h (1 Bft) O 90 4,5 C 6,8 C 2,9 km/h (1 Bft)
17.10.2013 21:10 6,8 C 85 % 1020,2 hPa 0,0 l/m 1,0 km/h (0 Bft) S 180 4,5 C 6,8 C 0,0 km/h (0 Bft)
17.10.2013 21:15 6,7 C 85 % 1020,2 hPa 0,0 l/m 1,1 km/h (1 Bft) S-SW 202 4,4 C 6,7 C 3,4 km/h (1 Bft)
17.10.2013 21:20 6,7 C 85 % 1020,2 hPa 0,0 l/m 1,0 km/h (0 Bft) O-SO 112 4,4 C 6,9 C 0,0 km/h (0 Bft)
17.10.2013 21:25 6,7 C 85 % 1020,2 hPa 0,0 l/m 1,0 km/h (0 Bft) O-SO 112 4,4 C 6,9 C 0,0 km/h (0 Bft)
17.10.2013 21:30 6,9 C 86 % 1020,3 hPa 0,0 l/m 1,8 km/h (1 Bft) O-NO 67 4,7 C 7,0 C 3,1 km/h (1 Bft)
17.10.2013 21:35 7,0 C 85 % 1020,3 hPa 0,0 l/m 2,1 km/h (1 Bft) SO 135 4,7 C 7,1 C 0,0 km/h (0 Bft)
17.10.2013 21:40 6,7 C 85 % 1020,3 hPa 0,0 l/m 1,3 km/h (1 Bft) SO 135 4,4 C 7,0 C 0,0 km/h (0 Bft)
17.10.2013 21:45 6,7 C 86 % 1020,3 hPa 0,0 l/m 0,6 km/h (0 Bft) W-NW 292 4,5 C 6,8 C 0,0 km/h (0 Bft)
17.10.2013 21:50 6,6 C 86 % 1020,3 hPa 0,0 l/m 0,5 km/h (0 Bft) N-NO 22 4,4 C 6,6 C 0,0 km/h (0 Bft)
17.10.2013 21:55 6,4 C 86 % 1020,3 hPa 0,0 l/m 0,8 km/h (0 Bft) O 90 4,2 C 6,5 C 0,0 km/h (0 Bft)
17.10.2013 22:00 6,5 C 86 % 1020,3 hPa 0,0 l/m 1,3 km/h (1 Bft) W-NW 292 4,3 C 6,4 C 2,4 km/h (1 Bft)
17.10.2013 22:03 6,7 C 87 % 1020,3 hPa 0,0 l/m 1,8 km/h (1 Bft) O 90 4,7 C 6,4 C 1,8 km/h (1 Bft)
17.10.2013 22:05 6,7 C 87 % 1020,3 hPa 0,0 l/m 1,8 km/h (1 Bft) O 90 4,7 C 6,4 C 1,8 km/h (1 Bft)
17.10.2013 22:10 6,7 C 87 % 1020,3 hPa 0,0 l/m 2,3 km/h (1 Bft) O-NO 67 4,7 C 6,5 C 2,4 km/h (1 Bft)
17.10.2013 22:15 6,5 C 87 % 1020,3 hPa 0,0 l/m 2,3 km/h (1 Bft) O-NO 67 4,5 C 6,5 C 2,4 km/h (1 Bft)
17.10.2013 22:20 6,6 C 87 % 1020,3 hPa 0,0 l/m 1,9 km/h (1 Bft) O 90 4,6 C 6,4 C 1,6 km/h (1 Bft)
17.10.2013 22:25 6,5 C 87 % 1020,3 hPa 0,0 l/m 1,6 km/h (1 Bft) O 90 4,5 C 6,4 C 2,4 km/h (1 Bft)
17.10.2013 22:30 6,5 C 87 % 1020,4 hPa 0,0 l/m 1,6 km/h (1 Bft) O-NO 67 4,5 C 6,4 C 2,7 km/h (1 Bft)
17.10.2013 22:35 6,6 C 87 % 1020,4 hPa 0,0 l/m 1,6 km/h (1 Bft) O-NO 67 4,6 C 6,4 C 2,7 km/h (1 Bft)
17.10.2013 22:40 6,8 C 86 % 1020,4 hPa 0,0 l/m 2,1 km/h (1 Bft) O 90 4,6 C 6,3 C 3,4 km/h (1 Bft)
17.10.2013 22:45 6,7 C 86 % 1020,4 hPa 0,0 l/m 2,6 km/h (1 Bft) O 90 4,5 C 6,3 C 6,9 km/h (2 Bft)
17.10.2013 22:50 6,9 C 86 % 1020,4 hPa 0,0 l/m 2,7 km/h (1 Bft) O 90 4,7 C 6,6 C 5,0 km/h (1 Bft)
17.10.2013 22:55 6,9 C 86 % 1020,4 hPa 0,0 l/m 2,9 km/h (1 Bft) O 90 4,7 C 6,6 C 4,2 km/h (1 Bft)
17.10.2013 23:00 6,6 C 85 % 1020,4 hPa 0,0 l/m 2,4 km/h (1 Bft) O-SO 112 4,3 C 6,7 C 0,0 km/h (0 Bft)
17.10.2013 23:05 6,5 C 85 % 1020,4 hPa 0,0 l/m 2,4 km/h (1 Bft) O-SO 112 4,2 C 6,7 C 0,0 km/h (0 Bft)
17.10.2013 23:10 6,5 C 85 % 1020,5 hPa 0,0 l/m 2,4 km/h (1 Bft) O-SO 112 4,2 C 6,7 C 0,0 km/h (0 Bft)
17.10.2013 23:15 6,2 C 85 % 1020,5 hPa 0,0 l/m 2,7 km/h (1 Bft) O 90 3,9 C 6,4 C 5,1 km/h (1 Bft)
17.10.2013 23:20 6,1 C 85 % 1020,5 hPa 0,0 l/m 2,9 km/h (1 Bft) O 90 3,8 C 6,3 C 5,1 km/h (1 Bft)
17.10.2013 23:25 6,0 C 85 % 1020,5 hPa 0,0 l/m 3,1 km/h (1 Bft) NO 45 3,7 C 6,2 C 2,1 km/h (1 Bft)
17.10.2013 23:30 6,0 C 85 % 1020,3 hPa 0,0 l/m 2,7 km/h (1 Bft) N-NO 22 3,7 C 6,0 C 3,1 km/h (1 Bft)
17.10.2013 23:35 5,9 C 86 % 1020,3 hPa 0,0 l/m 2,4 km/h (1 Bft) O-NO 67 3,7 C 5,9 C 3,4 km/h (1 Bft)
17.10.2013 23:40 5,8 C 86 % 1020,3 hPa 0,0 l/m 2,4 km/h (1 Bft) NO 45 3,6 C 5,9 C 4,5 km/h (1 Bft)
17.10.2013 23:45 5,9 C 86 % 1020,3 hPa 0,0 l/m 2,7 km/h (1 Bft) O-NO 67 3,7 C 5,9 C 3,4 km/h (1 Bft)
17.10.2013 23:50 5,6 C 86 % 1020,0 hPa 0,0 l/m 1,9 km/h (1 Bft) N-NO 22 3,4 C 5,8 C 0,0 km/h (0 Bft)
17.10.2013 23:55 5,4 C 86 % 1020,0 hPa 0,0 l/m 1,1 km/h (1 Bft) NO 45 3,3 C 5,6 C 1,8 km/h (1 Bft)
_ Min-Zeit 00:50 14:05 04:25 - 20:40 - - 00:40 08:05 23:50
Minimum _ 2,7 C 49 % 1015,8 hPa - 0,0 km/h (0 Bft) - - 1,7 C 2,7 C 0,0 km/h (0 Bft)
_ Max-Zeit 13:55 07:15 13:25 06:45 10:55 - - 11:25 20:40 10:30
Maximum _ 14,3 C 95 % 1021,4 hPa 0,7 l/m 13,5 km/h
S (3 Bft)
- - 8,4 C 17,2 C 26,1 km/h
S (4 Bft)
Durchschnitt _ 8,4 C 81 % 1019,2 hPa #2,1 l/m 2,4 km/h (1 Bft) S - 5,0 C 10,2 C 3,0 km/h (1 Bft)